Time;durP1;ratioP1;P1;durP2;ratioP2;P2;SDS_P1;SDS_P2;PMS_P1;PMS_P2;Temp;Humidity;BMP_temperature;BMP_pressure;BME280_temperature;BME280_humidity;BME280_pressure;Samples;Min_cycle;Max_cycle;Signal;HPM_P1;HPM_P2
2023/01/14 00:00:54;;;;;;;14.82;2.58;;;;;;;;;;5030518;28;20053;-67
2023/01/14 00:03:20;;;;;;;14.55;2.42;;;;;;;;;;5030659;28;20065;-67
2023/01/14 00:05:57;;;;;;;18.35;3.00;;;;;;;;;;5030866;28;20479;-67
2023/01/14 00:08:24;;;;;;;20.88;2.53;;;;;;;;;;5030519;28;20034;-68
2023/01/14 00:10:50;;;;;;;18.13;2.88;;;;;;;;;;5030775;28;20115;-68
2023/01/14 00:13:16;;;;;;;18.08;2.70;;;;;;;;;;5049186;28;20094;-67
2023/01/14 00:15:52;;;;;;;17.15;2.75;;;;;;;;;;5050435;28;20119;-67
2023/01/14 00:18:18;;;;;;;15.20;3.33;;;;;;;;;;5050676;28;20044;-68
2023/01/14 00:20:44;;;;;;;17.88;2.88;;;;;;;;;;5049148;28;20057;-67
2023/01/14 00:23:10;;;;;;;19.95;4.00;;;;;;;;;;5048701;28;20049;-67
2023/01/14 00:25:37;;;;;;;19.92;2.83;;;;;;;;;;5044124;28;20396;-67
2023/01/14 00:28:03;;;;;;;17.27;3.15;;;;;;;;;;5030297;28;20120;-67
2023/01/14 00:30:29;;;;;;;15.60;2.33;;;;;;;;;;5030237;28;20042;-67
2023/01/14 00:32:55;;;;;;;15.65;2.95;;;;;;;;;;5030396;28;20033;-67
2023/01/14 00:35:21;;;;;;;13.23;2.60;;;;;;;;;;5030470;28;20052;-67
2023/01/14 00:37:47;;;;;;;21.75;4.60;;;;;;;;;;5034235;28;20076;-67
2023/01/14 00:40:13;;;;;;;21.98;4.20;;;;;;;;;;5034773;28;20095;-67
2023/01/14 00:42:40;;;;;;;20.33;3.90;;;;;;;;;;5034280;28;20388;-67
2023/01/14 00:45:06;;;;;;;19.13;3.35;;;;;;;;;;5033002;28;20100;-67
2023/01/14 00:47:32;;;;;;;23.95;3.65;;;;;;;;;;5034404;28;20376;-67
2023/01/14 00:49:58;;;;;;;26.80;3.92;;;;;;;;;;5034250;28;20045;-67
2023/01/14 00:52:24;;;;;;;16.35;3.70;;;;;;;;;;5033966;28;20426;-67
2023/01/14 00:54:50;;;;;;;17.80;3.55;;;;;;;;;;5034124;28;20045;-67
2023/01/14 00:57:16;;;;;;;18.88;3.78;;;;;;;;;;5034455;28;20125;-67
2023/01/14 00:59:42;;;;;;;17.63;3.47;;;;;;;;;;5032544;28;20050;-67
2023/01/14 01:02:08;;;;;;;21.95;3.88;;;;;;;;;;5034244;28;20041;-67
2023/01/14 01:04:34;;;;;;;16.27;3.38;;;;;;;;;;5033726;28;20045;-67
2023/01/14 01:07:01;;;;;;;25.48;3.67;;;;;;;;;;5032662;28;20053;-67
2023/01/14 01:09:28;;;;;;;20.95;3.22;;;;;;;;;;5033962;28;20099;-67
2023/01/14 01:11:57;;;;;;;18.20;2.90;;;;;;;;;;5042743;28;20041;-67
2023/01/14 01:14:24;;;;;;;22.75;3.38;;;;;;;;;;5053080;28;20033;-67
2023/01/14 01:16:50;;;;;;;18.52;3.03;;;;;;;;;;5053925;28;20045;-67
2023/01/14 01:19:16;;;;;;;15.95;2.90;;;;;;;;;;5053770;28;20048;-67
2023/01/14 01:21:42;;;;;;;20.77;3.22;;;;;;;;;;5053136;28;20211;-67
2023/01/14 01:24:08;;;;;;;22.83;4.13;;;;;;;;;;5053215;28;20127;-67
2023/01/14 01:26:34;;;;;;;20.45;3.58;;;;;;;;;;5039295;28;20041;-67
2023/01/14 01:29:00;;;;;;;14.77;2.15;;;;;;;;;;5032081;28;20160;-68
2023/01/14 01:31:27;;;;;;;16.83;3.60;;;;;;;;;;5033877;28;20528;-68
2023/01/14 01:33:53;;;;;;;14.95;3.00;;;;;;;;;;5033459;28;20107;-68
2023/01/14 01:36:21;;;;;;;14.50;2.60;;;;;;;;;;5033316;28;20095;-68
2023/01/14 01:38:47;;;;;;;15.65;3.15;;;;;;;;;;5033424;28;20045;-67
2023/01/14 01:41:16;;;;;;;17.55;3.05;;;;;;;;;;5033294;28;20041;-67
2023/01/14 01:43:57;;;;;;;15.35;3.00;;;;;;;;;;5032871;28;20045;-67
2023/01/14 01:46:23;;;;;;;19.48;3.05;;;;;;;;;;5031884;28;20045;-68
2023/01/14 01:48:49;;;;;;;13.63;2.83;;;;;;;;;;5032547;28;20037;-68
2023/01/14 01:51:18;;;;;;;17.77;2.97;;;;;;;;;;5033030;28;20117;-67
2023/01/14 01:53:47;;;;;;;19.52;3.08;;;;;;;;;;5033177;28;20045;-68
2023/01/14 01:56:15;;;;;;;19.35;3.22;;;;;;;;;;5033288;28;20056;-68
2023/01/14 01:58:41;;;;;;;20.30;3.50;;;;;;;;;;5031102;28;20195;-68
2023/01/14 02:01:07;;;;;;;19.88;3.20;;;;;;;;;;5032905;28;20571;-68
2023/01/14 02:03:38;;;;;;;25.30;3.60;;;;;;;;;;5031433;28;20072;-68
2023/01/14 02:06:04;;;;;;;16.63;2.92;;;;;;;;;;5032486;28;20506;-68
2023/01/14 02:08:31;;;;;;;26.05;3.38;;;;;;;;;;5032939;28;20037;-68
2023/01/14 02:11:15;;;;;;;13.90;2.92;;;;;;;;;;5033522;28;20539;-68
2023/01/14 02:13:44;;;;;;;18.33;2.97;;;;;;;;;;5067646;28;20040;-68
2023/01/14 02:16:13;;;;;;;21.38;3.58;;;;;;;;;;5052799;28;20041;-68
2023/01/14 02:19:08;;;;;;;19.65;3.40;;;;;;;;;;5052740;28;20048;-68
2023/01/14 02:21:37;;;;;;;18.33;3.00;;;;;;;;;;5015406;28;20068;-68
2023/01/14 02:24:16;;;;;;;22.33;3.05;;;;;;;;;;5051436;28;20523;-67
2023/01/14 02:26:59;;;;;;;18.80;3.33;;;;;;;;;;5036771;28;20132;-67
2023/01/14 02:29:36;;;;;;;21.08;3.53;;;;;;;;;;5032250;28;20049;-67
2023/01/14 02:32:05;;;;;;;18.80;2.80;;;;;;;;;;5032332;28;20389;-67
2023/01/14 02:34:50;;;;;;;26.75;3.75;;;;;;;;;;5032212;28;20120;-67
2023/01/14 02:37:19;;;;;;;26.20;3.00;;;;;;;;;;5031977;28;20044;-67
2023/01/14 02:40:00;;;;;;;22.40;3.33;;;;;;;;;;5032383;28;20041;-67
2023/01/14 02:45:18;;;;;;;22.42;3.42;;;;;;;;;;5032354;28;20053;-67
2023/01/14 02:47:45;;;;;;;20.40;3.13;;;;;;;;;;5032040;28;20570;-67
2023/01/14 02:50:13;;;;;;;23.52;2.85;;;;;;;;;;5030610;28;20041;-67
2023/01/14 02:52:39;;;;;;;19.80;3.13;;;;;;;;;;5032004;28;20033;-67
2023/01/14 02:55:27;;;;;;;25.75;2.97;;;;;;;;;;5030664;28;20240;-67
2023/01/14 02:58:04;;;;;;;19.42;3.15;;;;;;;;;;5031433;28;20037;-67
2023/01/14 03:00:30;;;;;;;21.10;3.28;;;;;;;;;;5031002;28;20045;-67
2023/01/14 03:02:56;;;;;;;16.80;3.30;;;;;;;;;;5031693;28;20615;-67
2023/01/14 03:05:31;;;;;;;17.42;2.80;;;;;;;;;;5031644;28;20124;-67
2023/01/14 03:08:00;;;;;;;23.23;3.20;;;;;;;;;;5030419;28;20423;-67
2023/01/14 03:10:48;;;;;;;20.25;3.03;;;;;;;;;;5030389;28;20047;-67
2023/01/14 03:13:16;;;;;;;22.50;2.78;;;;;;;;;;5050858;28;20048;-67
2023/01/14 03:15:46;;;;;;;32.15;3.72;;;;;;;;;;5051495;28;20044;-67
2023/01/14 03:18:27;;;;;;;18.70;3.47;;;;;;;;;;5049964;28;20068;-67
2023/01/14 03:21:05;;;;;;;13.35;2.47;;;;;;;;;;5108061;27;20107;-66
2023/01/14 03:23:33;;;;;;;19.30;3.28;;;;;;;;;;5088041;28;20074;-66
2023/01/14 03:26:00;;;;;;;19.35;2.95;;;;;;;;;;5088298;28;20056;-67
2023/01/14 03:28:32;;;;;;;23.48;3.28;;;;;;;;;;5069389;28;20076;-67
2023/01/14 03:31:02;;;;;;;18.10;3.28;;;;;;;;;;5088163;28;20086;-67
2023/01/14 03:33:33;;;;;;;16.77;2.78;;;;;;;;;;5087733;28;20046;-67
2023/01/14 03:36:00;;;;;;;17.30;3.40;;;;;;;;;;5069699;28;20052;-67
2023/01/14 03:38:30;;;;;;;24.08;2.88;;;;;;;;;;5087961;28;20051;-67
2023/01/14 03:40:57;;;;;;;18.77;2.67;;;;;;;;;;5087607;28;20483;-67
2023/01/14 03:43:26;;;;;;;19.10;2.95;;;;;;;;;;5068948;28;20044;-67
2023/01/14 03:45:52;;;;;;;14.00;2.30;;;;;;;;;;5069466;28;20040;-67
2023/01/14 03:48:18;;;;;;;20.33;3.40;;;;;;;;;;5087408;28;20127;-67
2023/01/14 03:50:57;;;;;;;15.65;2.47;;;;;;;;;;5069237;28;20068;-67
2023/01/14 03:53:30;;;;;;;17.80;2.92;;;;;;;;;;5069409;28;20143;-67
2023/01/14 03:55:56;;;;;;;17.33;2.90;;;;;;;;;;5069221;28;20052;-67
2023/01/14 03:58:22;;;;;;;15.25;2.28;;;;;;;;;;5087385;28;20123;-67
2023/01/14 04:00:56;;;;;;;17.60;2.42;;;;;;;;;;5069117;28;20574;-67
2023/01/14 04:03:23;;;;;;;16.70;2.60;;;;;;;;;;5086918;28;20040;-67
2023/01/14 04:05:49;;;;;;;21.88;2.80;;;;;;;;;;5069038;28;20050;-67
2023/01/14 04:08:18;;;;;;;16.73;2.40;;;;;;;;;;5087394;28;20044;-67
2023/01/14 04:10:44;;;;;;;17.65;2.83;;;;;;;;;;5065539;28;20052;-67
2023/01/14 04:15:57;;;;;;;15.55;2.90;;;;;;;;;;5067009;28;20044;-67
2023/01/14 04:18:23;;;;;;;21.17;2.58;;;;;;;;;;5066597;28;20037;-66
2023/01/14 04:20:49;;;;;;;17.42;3.33;;;;;;;;;;5048471;28;20484;-66
2023/01/14 04:23:15;;;;;;;16.33;2.78;;;;;;;;;;5048639;28;20122;-66
2023/01/14 04:25:41;;;;;;;16.92;2.92;;;;;;;;;;5066126;28;20064;-67
2023/01/14 04:28:08;;;;;;;9.73;2.17;;;;;;;;;;5066682;28;20044;-67
2023/01/14 04:30:34;;;;;;;15.00;2.20;;;;;;;;;;5063177;28;20044;-67
2023/01/14 04:33:00;;;;;;;15.15;2.40;;;;;;;;;;5035060;28;20424;-68
2023/01/14 04:35:26;;;;;;;16.98;3.30;;;;;;;;;;5035428;28;20098;-68
2023/01/14 04:37:54;;;;;;;16.50;3.20;;;;;;;;;;5053460;28;20056;-68
2023/01/14 04:40:21;;;;;;;20.98;2.75;;;;;;;;;;5034876;28;20049;-67
2023/01/14 04:42:47;;;;;;;16.50;2.45;;;;;;;;;;5053168;28;20098;-67
2023/01/14 04:45:13;;;;;;;20.13;2.97;;;;;;;;;;5053164;28;20048;-67
2023/01/14 04:47:39;;;;;;;20.45;3.53;;;;;;;;;;5053333;28;20428;-67
2023/01/14 04:53:09;;;;;;;22.80;3.85;;;;;;;;;;5014069;28;20476;-67
2023/01/14 04:55:38;;;;;;;20.17;2.90;;;;;;;;;;5052429;28;20450;-67
2023/01/14 04:58:05;;;;;;;21.13;3.20;;;;;;;;;;5053069;28;20041;-67
2023/01/14 05:00:31;;;;;;;16.85;3.15;;;;;;;;;;5052586;28;20052;-67
2023/01/14 05:02:57;;;;;;;24.10;4.72;;;;;;;;;;5034571;28;20037;-67
2023/01/14 05:05:23;;;;;;;22.98;3.42;;;;;;;;;;5034822;28;20418;-67
2023/01/14 05:07:49;;;;;;;19.60;3.25;;;;;;;;;;5052754;28;20044;-67
2023/01/14 05:10:16;;;;;;;20.17;2.88;;;;;;;;;;5034117;28;20091;-67
2023/01/14 05:12:55;;;;;;;17.92;3.10;;;;;;;;;;5052326;28;20063;-67
2023/01/14 05:15:25;;;;;;;18.52;3.70;;;;;;;;;;5052370;28;20048;-67
2023/01/14 05:17:52;;;;;;;20.33;3.55;;;;;;;;;;5052276;28;20363;-67
2023/01/14 05:20:18;;;;;;;23.20;3.35;;;;;;;;;;5034139;28;20446;-67
2023/01/14 05:22:44;;;;;;;18.85;3.75;;;;;;;;;;5052463;28;20447;-67
2023/01/14 05:25:10;;;;;;;17.25;3.40;;;;;;;;;;5052091;28;20551;-67
2023/01/14 05:27:36;;;;;;;15.23;3.65;;;;;;;;;;5052291;28;20120;-67
2023/01/14 05:30:02;;;;;;;17.48;3.50;;;;;;;;;;5052570;28;20758;-67
2023/01/14 05:32:29;;;;;;;23.70;4.65;;;;;;;;;;5051864;28;20383;-67
2023/01/14 05:34:55;;;;;;;23.05;3.72;;;;;;;;;;5052567;28;20048;-67
2023/01/14 05:37:21;;;;;;;29.17;4.47;;;;;;;;;;5052160;28;20155;-67
2023/01/14 05:39:47;;;;;;;26.63;3.70;;;;;;;;;;5033895;28;20076;-67
2023/01/14 05:47:43;;;;;;;24.38;3.70;;;;;;;;;;5033115;28;20053;-67
2023/01/14 05:50:10;;;;;;;27.50;4.50;;;;;;;;;;5052011;28;20044;-67
2023/01/14 05:52:36;;;;;;;23.23;4.65;;;;;;;;;;5051709;28;20044;-67
2023/01/14 05:55:02;;;;;;;19.95;3.97;;;;;;;;;;5033658;28;20051;-67
2023/01/14 05:57:28;;;;;;;26.30;4.80;;;;;;;;;;5051894;28;20040;-67
2023/01/14 05:59:54;;;;;;;22.75;4.60;;;;;;;;;;5051811;28;20048;-67
2023/01/14 06:07:50;;;;;;;25.35;5.43;;;;;;;;;;5051509;28;20045;-67
2023/01/14 06:10:16;;;;;;;23.85;5.63;;;;;;;;;;5051310;28;20114;-67
2023/01/14 06:13:06;;;;;;;24.90;5.25;;;;;;;;;;5050987;28;20060;-67
2023/01/14 06:15:36;;;;;;;31.27;5.55;;;;;;;;;;5051413;28;20047;-67
2023/01/14 06:18:23;;;;;;;28.50;5.63;;;;;;;;;;5051058;28;20442;-67
2023/01/14 06:20:50;;;;;;;37.25;7.40;;;;;;;;;;5051057;28;20064;-67
2023/01/14 06:23:17;;;;;;;26.17;5.53;;;;;;;;;;5051091;28;20044;-67
2023/01/14 06:25:44;;;;;;;27.00;6.30;;;;;;;;;;5032850;28;20499;-67
2023/01/14 06:28:10;;;;;;;30.67;5.05;;;;;;;;;;5033180;28;20154;-67
2023/01/14 06:30:36;;;;;;;29.98;5.38;;;;;;;;;;5033440;28;20041;-67
2023/01/14 06:33:02;;;;;;;23.35;6.22;;;;;;;;;;5050579;28;20132;-67
2023/01/14 06:35:28;;;;;;;31.67;5.85;;;;;;;;;;5051103;28;20048;-67
2023/01/14 06:37:54;;;;;;;32.95;5.78;;;;;;;;;;5050743;28;20030;-67
2023/01/14 06:40:20;;;;;;;25.10;5.60;;;;;;;;;;5032499;28;20611;-67
2023/01/14 06:42:47;;;;;;;28.88;5.55;;;;;;;;;;5050794;28;20386;-67
2023/01/14 06:45:13;;;;;;;24.80;4.88;;;;;;;;;;5050829;28;20562;-67
2023/01/14 06:47:39;;;;;;;31.50;5.95;;;;;;;;;;5050219;28;20083;-67
2023/01/14 06:50:05;;;;;;;32.53;5.30;;;;;;;;;;5050540;28;20041;-67
2023/01/14 06:52:32;;;;;;;29.92;6.72;;;;;;;;;;5050820;28;20582;-67
2023/01/14 06:54:58;;;;;;;31.05;5.38;;;;;;;;;;5050253;28;20115;-67
2023/01/14 06:57:25;;;;;;;32.67;5.53;;;;;;;;;;5051004;28;20095;-67
2023/01/14 06:59:51;;;;;;;33.17;5.95;;;;;;;;;;5050779;28;20037;-67
2023/01/14 07:02:17;;;;;;;29.60;5.45;;;;;;;;;;5050156;28;20091;-67
2023/01/14 07:04:43;;;;;;;25.52;5.05;;;;;;;;;;5032813;28;20047;-67
2023/01/14 07:07:10;;;;;;;30.58;5.45;;;;;;;;;;5050574;28;20041;-67
2023/01/14 07:09:36;;;;;;;37.15;5.70;;;;;;;;;;5050268;28;20044;-67
2023/01/14 07:12:02;;;;;;;30.60;4.72;;;;;;;;;;5032493;28;20041;-67
2023/01/14 07:14:28;;;;;;;33.45;5.07;;;;;;;;;;5050546;28;20041;-67
2023/01/14 07:16:54;;;;;;;26.35;5.65;;;;;;;;;;5050394;28;20068;-67
2023/01/14 07:19:21;;;;;;;32.70;5.25;;;;;;;;;;5050236;28;20083;-67
2023/01/14 07:21:47;;;;;;;22.25;5.00;;;;;;;;;;5050663;28;20083;-67
2023/01/14 07:24:13;;;;;;;22.70;5.38;;;;;;;;;;5049891;28;20432;-67
2023/01/14 07:26:39;;;;;;;32.28;5.80;;;;;;;;;;5050226;28;20068;-67
2023/01/14 07:29:05;;;;;;;24.75;4.47;;;;;;;;;;5050518;28;20045;-67
2023/01/14 07:31:31;;;;;;;25.60;5.15;;;;;;;;;;5031959;28;20045;-67
2023/01/14 07:33:57;;;;;;;34.05;5.47;;;;;;;;;;5050507;28;20494;-67
2023/01/14 07:36:23;;;;;;;34.75;6.55;;;;;;;;;;5050358;28;20444;-67
2023/01/14 07:38:49;;;;;;;31.13;5.15;;;;;;;;;;5049699;28;20454;-68
2023/01/14 07:41:18;;;;;;;29.67;5.90;;;;;;;;;;5050315;28;20072;-67
2023/01/14 07:43:44;;;;;;;27.50;6.40;;;;;;;;;;5032382;28;20508;-67
2023/01/14 07:46:10;;;;;;;32.45;6.18;;;;;;;;;;5049884;28;20390;-67
2023/01/14 07:48:36;;;;;;;28.05;4.85;;;;;;;;;;5050092;28;20446;-67
2023/01/14 07:51:03;;;;;;;26.55;5.05;;;;;;;;;;5032371;28;20472;-67
2023/01/14 07:53:29;;;;;;;36.85;6.00;;;;;;;;;;5031621;28;20430;-67
2023/01/14 07:55:55;;;;;;;26.63;5.30;;;;;;;;;;5032403;28;20045;-67
2023/01/14 07:58:23;;;;;;;20.75;4.95;;;;;;;;;;5050441;28;20155;-67
2023/01/14 08:00:49;;;;;;;34.28;5.90;;;;;;;;;;5031637;28;20049;-67
2023/01/14 08:03:15;;;;;;;26.98;5.28;;;;;;;;;;5049946;28;20430;-67
2023/01/14 08:05:41;;;;;;;28.25;6.47;;;;;;;;;;5032416;28;20052;-67
2023/01/14 08:08:07;;;;;;;22.35;4.80;;;;;;;;;;5053577;28;20090;-67
2023/01/14 08:10:33;;;;;;;31.90;4.90;;;;;;;;;;5035790;28;20750;-67
2023/01/14 08:12:59;;;;;;;28.80;5.28;;;;;;;;;;5035664;28;20076;-67
2023/01/14 08:15:25;;;;;;;27.30;4.20;;;;;;;;;;5053477;28;20088;-67
2023/01/14 08:17:53;;;;;;;31.65;5.68;;;;;;;;;;5053443;28;20049;-67
2023/01/14 08:20:22;;;;;;;27.65;4.20;;;;;;;;;;5053463;28;20099;-67
2023/01/14 08:22:49;;;;;;;24.25;4.75;;;;;;;;;;5034952;28;20053;-67
2023/01/14 08:25:15;;;;;;;22.17;4.75;;;;;;;;;;5053770;28;20044;-67
2023/01/14 08:27:41;;;;;;;28.42;4.47;;;;;;;;;;5053485;28;20490;-67
2023/01/14 08:30:07;;;;;;;24.25;4.00;;;;;;;;;;5035441;28;20155;-68
2023/01/14 08:32:33;;;;;;;25.65;4.30;;;;;;;;;;5035201;28;20410;-68
2023/01/14 08:34:59;;;;;;;27.38;5.05;;;;;;;;;;5035639;28;20501;-68
2023/01/14 08:37:25;;;;;;;24.63;4.70;;;;;;;;;;5035049;28;20076;-68
2023/01/14 08:39:51;;;;;;;24.10;4.25;;;;;;;;;;5053274;28;20037;-68
2023/01/14 08:42:18;;;;;;;26.10;4.88;;;;;;;;;;5035010;28;20052;-68
2023/01/14 08:44:44;;;;;;;23.00;4.30;;;;;;;;;;5034716;28;20075;-68
2023/01/14 08:47:10;;;;;;;22.05;5.10;;;;;;;;;;5035190;28;20095;-68
2023/01/14 08:49:36;;;;;;;26.73;3.85;;;;;;;;;;5053090;28;20049;-67
2023/01/14 08:52:02;;;;;;;22.98;4.50;;;;;;;;;;5034474;28;20043;-67
2023/01/14 08:54:28;;;;;;;24.75;4.32;;;;;;;;;;5053158;28;20091;-67
2023/01/14 08:56:55;;;;;;;19.65;4.25;;;;;;;;;;5035176;28;20056;-67
2023/01/14 08:59:22;;;;;;;24.40;4.07;;;;;;;;;;5034916;28;20098;-67
2023/01/14 09:01:48;;;;;;;20.17;4.30;;;;;;;;;;5035097;28;20049;-67
2023/01/14 09:04:14;;;;;;;24.75;4.10;;;;;;;;;;5052505;28;20379;-67
2023/01/14 09:17:41;;;;;;;23.35;4.35;;;;;;;;;;5052471;28;20475;-68
2023/01/14 09:20:11;;;;;;;17.65;3.70;;;;;;;;;;5052283;28;20056;-68
2023/01/14 09:22:37;;;;;;;16.63;3.95;;;;;;;;;;5033903;28;20040;-68
2023/01/14 09:25:03;;;;;;;18.83;3.67;;;;;;;;;;5052698;28;20037;-67
2023/01/14 09:27:31;;;;;;;23.55;4.38;;;;;;;;;;5052098;28;20048;-67
2023/01/14 09:29:57;;;;;;;17.15;3.95;;;;;;;;;;5052016;28;20383;-67
2023/01/14 09:32:23;;;;;;;21.38;4.30;;;;;;;;;;5034385;28;20558;-67
2023/01/14 09:34:50;;;;;;;18.42;4.95;;;;;;;;;;5052038;28;20045;-68
2023/01/14 09:37:23;;;;;;;15.25;3.85;;;;;;;;;;5051731;28;20041;-67
2023/01/14 09:39:50;;;;;;;19.85;4.32;;;;;;;;;;5050264;28;20052;-67
2023/01/14 09:42:20;;;;;;;18.33;4.45;;;;;;;;;;5033996;28;20029;-67
2023/01/14 09:44:46;;;;;;;14.13;3.47;;;;;;;;;;5033538;28;20128;-67
2023/01/14 09:47:13;;;;;;;14.00;3.00;;;;;;;;;;5052129;28;20702;-67
2023/01/14 09:49:40;;;;;;;14.00;3.60;;;;;;;;;;5051703;28;20072;-67
2023/01/14 09:52:25;;;;;;;12.60;3.17;;;;;;;;;;5050441;28;20463;-67
2023/01/14 09:54:51;;;;;;;13.82;3.30;;;;;;;;;;5051519;28;20040;-67
2023/01/14 09:57:29;;;;;;;14.45;3.17;;;;;;;;;;5052044;28;20047;-67
2023/01/14 10:00:06;;;;;;;12.70;2.83;;;;;;;;;;5033295;28;20127;-67
2023/01/14 10:02:38;;;;;;;12.18;2.75;;;;;;;;;;5033528;28;20049;-67
2023/01/14 10:05:04;;;;;;;;;;;;;;;;;;5051672;28;20047;-67
2023/01/14 10:07:30;;;;;;;9.27;2.92;;;;;;;;;;5051499;28;19916;-68
2023/01/14 10:09:58;;;;;;;14.68;3.28;;;;;;;;;;5059308;28;20055;-67
2023/01/14 10:12:44;;;;;;;14.35;3.50;;;;;;;;;;5051526;28;20039;-67
2023/01/14 10:15:20;;;;;;;13.63;3.95;;;;;;;;;;5051031;28;20047;-67
2023/01/14 10:17:54;;;;;;;10.38;3.25;;;;;;;;;;5051563;28;20047;-67
2023/01/14 10:20:32;;;;;;;12.02;3.28;;;;;;;;;;5032929;28;20049;-67
2023/01/14 10:23:03;;;;;;;8.23;3.33;;;;;;;;;;5050763;28;20057;-67
2023/01/14 10:25:29;;;;;;;10.23;3.10;;;;;;;;;;5033230;28;20043;-68
2023/01/14 10:27:59;;;;;;;11.68;3.10;;;;;;;;;;5051356;28;20048;-66
2023/01/14 10:30:33;;;;;;;16.10;3.70;;;;;;;;;;5049965;28;20041;-67
2023/01/14 10:33:02;;;;;;;8.48;2.92;;;;;;;;;;5050993;28;20049;-68
2023/01/14 10:35:38;;;;;;;16.15;3.40;;;;;;;;;;5050779;28;20041;-68
2023/01/14 10:38:05;;;;;;;9.18;2.65;;;;;;;;;;5032956;28;20045;-68
2023/01/14 10:40:32;;;;;;;9.90;2.60;;;;;;;;;;5050491;28;20045;-68
2023/01/14 10:42:58;;;;;;;18.35;2.75;;;;;;;;;;5050518;28;20132;-68
2023/01/14 10:45:25;;;;;;;8.13;3.17;;;;;;;;;;5050965;28;20033;-68
2023/01/14 10:47:54;;;;;;;11.32;3.00;;;;;;;;;;5033067;28;20118;-67
2023/01/14 10:50:22;;;;;;;8.02;2.22;;;;;;;;;;5050394;28;20041;-67
2023/01/14 10:52:49;;;;;;;6.40;2.75;;;;;;;;;;5050935;28;20595;-67
2023/01/14 10:55:23;;;;;;;8.25;2.67;;;;;;;;;;5050691;28;20060;-67
2023/01/14 10:57:50;;;;;;;6.80;2.03;;;;;;;;;;5050529;28;20048;-68
2023/01/14 11:00:25;;;;;;;8.68;2.33;;;;;;;;;;5032623;28;20045;-67
2023/01/14 11:02:52;;;;;;;12.50;2.65;;;;;;;;;;5050618;28;20052;-67
2023/01/14 11:05:37;;;;;;;9.90;2.80;;;;;;;;;;5050409;28;20045;-67
2023/01/14 11:08:21;;;;;;;6.63;2.40;;;;;;;;;;5050847;28;20094;-67
2023/01/14 11:10:59;;;;;;;6.57;2.50;;;;;;;;;;5050266;28;20048;-67
2023/01/14 11:13:25;;;;;;;9.85;3.20;;;;;;;;;;5029013;28;20514;-67
2023/01/14 11:15:51;;;;;;;10.70;2.90;;;;;;;;;;5030812;28;20464;-67
2023/01/14 11:18:17;;;;;;;10.40;2.83;;;;;;;;;;5030619;28;20411;-67
2023/01/14 11:20:43;;;;;;;7.70;2.25;;;;;;;;;;5029857;28;20068;-67
2023/01/14 11:23:25;;;;;;;6.32;2.30;;;;;;;;;;5030373;28;20478;-67
2023/01/14 11:25:51;;;;;;;;;;;;;;;;;;5038122;28;20086;-67
2023/01/14 11:28:17;;;;;;;8.05;2.20;;;;;;;;;;5050068;28;20349;-67
2023/01/14 11:30:46;;;;;;;7.78;2.42;;;;;;;;;;5050514;28;20510;-67
2023/01/14 11:33:20;;;;;;;9.98;2.40;;;;;;;;;;5050288;28;20041;-67
2023/01/14 11:35:51;;;;;;;10.00;2.58;;;;;;;;;;5049910;28;20094;-67
2023/01/14 11:38:21;;;;;;;7.22;2.55;;;;;;;;;;5050263;28;20145;-67
2023/01/14 11:43:35;;;;;;;10.35;2.28;;;;;;;;;;5053762;28;20052;-67
2023/01/14 11:46:12;;;;;;;8.82;2.95;;;;;;;;;;5036480;28;20044;-67
2023/01/14 11:48:40;;;;;;;7.72;2.03;;;;;;;;;;5054197;28;20040;-67
2023/01/14 11:51:15;;;;;;;6.03;1.80;;;;;;;;;;5053852;28;20115;-67
2023/01/14 11:53:46;;;;;;;5.30;2.20;;;;;;;;;;5054081;28;20475;-67
2023/01/14 11:56:27;;;;;;;5.93;2.30;;;;;;;;;;5054357;28;20033;-68
2023/01/14 11:58:53;;;;;;;6.30;2.13;;;;;;;;;;5053465;28;20247;-68
2023/01/14 12:01:22;;;;;;;6.47;2.40;;;;;;;;;;5053847;28;20481;-68
2023/01/14 12:04:00;;;;;;;8.07;2.72;;;;;;;;;;5053913;28;20120;-67
2023/01/14 12:06:29;;;;;;;5.20;2.33;;;;;;;;;;5053611;28;20033;-67
2023/01/14 12:09:01;;;;;;;5.53;2.53;;;;;;;;;;5053670;28;20067;-67
2023/01/14 12:11:31;;;;;;;6.35;2.92;;;;;;;;;;5053636;28;20112;-67
2023/01/14 12:16:49;;;;;;;4.20;2.70;;;;;;;;;;5053807;28;20041;-67
2023/01/14 12:19:19;;;;;;;6.07;2.70;;;;;;;;;;5052817;28;20063;-67
2023/01/14 12:22:04;;;;;;;6.40;2.88;;;;;;;;;;5053682;28;20033;-67
2023/01/14 12:24:34;;;;;;;4.43;2.00;;;;;;;;;;5053371;28;20077;-67
2023/01/14 12:27:01;;;;;;;9.77;3.53;;;;;;;;;;5035038;28;20072;-67
2023/01/14 12:29:33;;;;;;;5.47;2.45;;;;;;;;;;5053140;28;20080;-67
2023/01/14 12:32:06;;;;;;;6.05;2.15;;;;;;;;;;5053563;28;20076;-67
2023/01/14 12:34:59;;;;;;;5.50;2.10;;;;;;;;;;5034738;28;20062;-67
2023/01/14 12:37:28;;;;;;;6.95;2.25;;;;;;;;;;5050191;28;20477;-67
2023/01/14 12:45:44;;;;;;;8.40;2.85;;;;;;;;;;5053147;28;20245;-67
2023/01/14 12:48:11;;;;;;;5.35;2.00;;;;;;;;;;5053136;28;20060;-67
2023/01/14 12:50:42;;;;;;;4.53;2.00;;;;;;;;;;5034772;28;20041;-67
2023/01/14 12:53:16;;;;;;;6.23;1.70;;;;;;;;;;5052733;28;20055;-67
2023/01/14 12:55:45;;;;;;;5.50;2.55;;;;;;;;;;5052758;28;20848;-67
2023/01/14 12:58:17;;;;;;;4.50;2.17;;;;;;;;;;5034784;28;20044;-67
2023/01/14 13:00:49;;;;;;;4.60;1.83;;;;;;;;;;5052800;28;20391;-67
2023/01/14 13:03:19;;;;;;;6.25;2.00;;;;;;;;;;5052887;28;20064;-67
2023/01/14 13:05:45;;;;;;;5.55;1.80;;;;;;;;;;5052368;28;20037;-67
2023/01/14 13:08:20;;;;;;;4.70;2.10;;;;;;;;;;5052872;28;20099;-67
2023/01/14 13:10:47;;;;;;;7.43;2.50;;;;;;;;;;5034654;28;20487;-67
2023/01/14 13:13:20;;;;;;;5.72;2.90;;;;;;;;;;5052217;28;20106;-67
2023/01/14 13:15:47;;;;;;;6.43;1.88;;;;;;;;;;5052618;28;20094;-67
2023/01/14 13:18:31;;;;;;;3.88;1.48;;;;;;;;;;5052673;28;20087;-67
2023/01/14 13:20:57;;;;;;;3.05;1.50;;;;;;;;;;5052110;28;20057;-67
2023/01/14 13:23:42;;;;;;;5.65;2.08;;;;;;;;;;5052526;28;20124;-67
2023/01/14 13:26:40;;;;;;;5.00;1.90;;;;;;;;;;5052061;28;20037;-67
2023/01/14 13:29:19;;;;;;;3.45;1.88;;;;;;;;;;5001854;28;20049;-67
2023/01/14 13:31:46;;;;;;;3.25;1.73;;;;;;;;;;5034544;28;20062;-67
2023/01/14 13:34:26;;;;;;;3.10;1.60;;;;;;;;;;5052070;28;20041;-67
2023/01/14 13:36:58;;;;;;;2.40;1.83;;;;;;;;;;5034332;28;20037;-67
2023/01/14 13:39:24;;;;;;;2.85;1.70;;;;;;;;;;5051969;28;20048;-67
2023/01/14 13:41:52;;;;;;;2.90;1.77;;;;;;;;;;5051780;28;20048;-67
2023/01/14 13:44:23;;;;;;;1.83;1.40;;;;;;;;;;5051864;28;20047;-67
2023/01/14 13:46:52;;;;;;;2.42;1.50;;;;;;;;;;5051737;28;20123;-67
2023/01/14 13:49:27;;;;;;;3.53;1.40;;;;;;;;;;5050167;28;20036;-67
2023/01/14 13:51:57;;;;;;;2.58;1.50;;;;;;;;;;5033993;28;20415;-67
2023/01/14 13:54:28;;;;;;;2.53;1.42;;;;;;;;;;5033777;28;20071;-67
2023/01/14 13:57:13;;;;;;;3.72;1.75;;;;;;;;;;5051265;28;20079;-67
2023/01/14 13:59:40;;;;;;;2.45;1.23;;;;;;;;;;5033967;28;20648;-67
2023/01/14 14:02:25;;;;;;;2.25;1.30;;;;;;;;;;5051723;28;20041;-67
2023/01/14 14:05:00;;;;;;;3.17;1.50;;;;;;;;;;5050464;28;20095;-67
2023/01/14 14:07:44;;;;;;;2.75;1.17;;;;;;;;;;5051115;28;20028;-67
2023/01/14 14:10:11;;;;;;;5.40;1.60;;;;;;;;;;5033355;28;20075;-67
2023/01/14 14:15:26;;;;;;;1.80;1.20;;;;;;;;;;5051481;28;20048;-67
2023/01/14 14:18:00;;;;;;;3.50;1.30;;;;;;;;;;5050755;28;20109;-67
2023/01/14 14:20:38;;;;;;;2.22;1.50;;;;;;;;;;5049788;28;20124;-67
2023/01/14 14:23:06;;;;;;;3.22;2.50;;;;;;;;;;5051112;28;20040;-69
2023/01/14 14:25:40;;;;;;;5.53;1.52;;;;;;;;;;5051058;28;20087;-66
2023/01/14 14:28:12;;;;;;;1.50;1.40;;;;;;;;;;5051339;28;20062;-67
2023/01/14 14:30:50;;;;;;;1.42;1.25;;;;;;;;;;5033476;28;20045;-67
2023/01/14 14:33:37;;;;;;;2.10;1.25;;;;;;;;;;5032812;28;20619;-68
2023/01/14 14:36:08;;;;;;;2.22;1.10;;;;;;;;;;5051179;28;20053;-69
2023/01/14 14:38:34;;;;;;;1.77;1.30;;;;;;;;;;5050858;28;20052;-68
2023/01/14 14:41:04;;;;;;;1.42;1.10;;;;;;;;;;5032725;28;20563;-68
2023/01/14 14:43:31;;;;;;;2.38;1.33;;;;;;;;;;5032594;28;20064;-68
2023/01/14 14:46:15;;;;;;;1.67;1.58;;;;;;;;;;5033077;28;20475;-68
2023/01/14 14:48:42;;;;;;;2.67;1.60;;;;;;;;;;5050667;28;20041;-68
2023/01/14 14:51:35;;;;;;;2.08;1.50;;;;;;;;;;5050733;28;20053;-68
2023/01/14 14:54:02;;;;;;;3.28;1.45;;;;;;;;;;5046942;28;20452;-68
2023/01/14 14:56:30;;;;;;;2.47;1.70;;;;;;;;;;5050537;28;20040;-68
2023/01/14 14:58:57;;;;;;;1.65;1.23;;;;;;;;;;5050453;28;20096;-68
2023/01/14 15:01:32;;;;;;;3.40;1.70;;;;;;;;;;5050709;28;20041;-68
2023/01/14 15:03:58;;;;;;;1.50;1.40;;;;;;;;;;5032047;28;20580;-68
2023/01/14 15:06:27;;;;;;;1.98;1.40;;;;;;;;;;5050518;28;20041;-68
2023/01/14 15:08:55;;;;;;;1.80;1.30;;;;;;;;;;5032679;28;20048;-68
2023/01/14 15:11:26;;;;;;;2.30;1.65;;;;;;;;;;5050119;28;20115;-68
2023/01/14 15:13:52;;;;;;;2.20;1.52;;;;;;;;;;5032101;28;20380;-68
2023/01/14 15:16:19;;;;;;;3.53;1.85;;;;;;;;;;5050408;28;20178;-68
2023/01/14 15:18:51;;;;;;;2.53;1.60;;;;;;;;;;5049868;28;20033;-68
2023/01/14 15:21:22;;;;;;;2.53;1.45;;;;;;;;;;5050546;28;20415;-68
2023/01/14 15:23:49;;;;;;;2.58;1.52;;;;;;;;;;5049985;28;20053;-68
2023/01/14 15:26:21;;;;;;;2.47;1.55;;;;;;;;;;5050191;28;20116;-68
2023/01/14 15:28:48;;;;;;;3.58;1.90;;;;;;;;;;5050338;28;20045;-68
2023/01/14 15:31:27;;;;;;;2.10;1.90;;;;;;;;;;5050286;28;20049;-68